Monday, December 18, 2017, 12:47 PM GMT
Back to Local

CYYG, Charlottetown, P. E. I.

Location: , , Canada Lat: 46.283
Local Time: 12:47 PM GMT (12:47 GMT) Lon: -63.133
Time Zone: GMT Elev: 157 ft

Show me the last for .
Show Coded

Time T Td Feel RH Dir Speed Gust Alt SLP Vis Weather Sky Remarks
2017-12-18 12:00 10 5 -2 78 260° 8 - 30.12 30.14 6 -SHSN OVC014 None
2017-12-18 11:00 10 5 -5 78 290° 13 - 30.12 30.14 12 -SHSN OVC013 None
2017-12-18 10:16 10 5 -8 78 260° 12 18 30.11 30.12 12 -SHSN OVC014 None
2017-12-18 10:00 10 5 -9 78 260° 13 21 30.11 30.12 12 -SHSN OVC015 None
2017-12-18 09:00 10 5 -3 78 260° 10 - 30.09 30.11 12 -SHSN OVC015 None
2017-12-18 08:00 12 5 -6 72 260° 12 21 30.09 30.11 10 -SHSN OVC017 None
2017-12-18 07:00 12 5 -3 72 270° 13 - 30.09 30.11 10 -SHSN OVC017 None
2017-12-18 06:00 12 5 -1 72 280° 10 - 30.06 30.08 10 -SHSN OVC021 None
2017-12-18 05:00 12 5 -3 72 280° 13 - 30.05 30.06 12 -SHSN BKN028 None
2017-12-18 04:00 12 5 -6 72 280° 14 21 30.06 30.08 10 OVC028 None
2017-12-18 03:00 12 5 -8 72 290° 16 24 30.05 30.06 10 -SHSN OVC027 None
2017-12-18 02:21 12 5 -9 72 280° 16 28 30.04 30.05 10 -SHSN OVC028 None
2017-12-18 02:00 12 7 -7 78 290° 13 23 30.03 30.05 12 OVC027 None
2017-12-18 01:00 14 5 -5 66 300° 15 23 30.03 30.04 15 OVC025 None
2017-12-18 00:00 14 5 -6 66 290° 15 26 30.01 30.03 15 BKN024 None
2017-12-17 23:00 14 5 -3 66 300° 13 20 30.00 30.01 15 BKN026 None
2017-12-17 22:00 16 5 -2 61 290° 15 21 29.98 29.99 15 FEW025 FEW150 SCT250 None
2017-12-17 21:00 16 5 4 61 300° 9 - 29.97 29.98 15 FEW025 FEW150 FEW250 None
2017-12-17 20:00 18 7 1 61 280° 10 20 29.95 29.96 15 FEW025 FEW240 None
2017-12-17 19:00 18 7 0 61 300° 14 23 29.93 29.94 15 FEW025 SCT250 None
2017-12-17 18:27 18 7 1 61 280° 13 20 29.92 29.94 15 VCSH SCT024 BKN250 None
2017-12-17 18:00 16 7 -1 66 300° 10 20 29.92 29.93 15 -SHSN BKN022 BKN250 None
2017-12-17 17:00 16 7 -1 66 290° 13 20 29.90 29.92 12 -SHSN DRSN OVC020 None
2017-12-17 16:00 16 7 -2 66 270° 15 22 29.90 29.92 12 -SHSN DRSN OVC017 None
2017-12-17 15:39 16 7 -2 66 280° 13 22 29.89 29.90 12 -SHSN DRSN OVC016 None
2017-12-17 15:00 14 7 -4 72 270° 16 22 29.90 29.92 10 -SN DRSN OVC017 None
2017-12-17 14:00 14 7 -5 72 280° 13 24 29.90 29.91 5 -SN DRSN OVC018 None
2017-12-17 13:00 12 7 -6 78 300° 10 21 29.88 29.90 15 -SN OVC017 None

Support USWX by starting your Amazon purchase here.